Time;durP1;ratioP1;P1;durP2;ratioP2;P2;SDS_P1;SDS_P2;PMS_P1;PMS_P2;Temp;Humidity;BMP_temperature;BMP_pressure;BME280_temperature;BME280_humidity;BME280_pressure;Samples;Min_cycle;Max_cycle;Signal;HPM_P1;HPM_P2
2023/03/01 00:01:25;;;;;;;30.38;15.57;;;;;;;;;;5050403;28;20033;-72
2023/03/01 00:03:52;;;;;;;28.63;14.43;;;;;;;;;;5051928;28;20477;-72
2023/03/01 00:06:19;;;;;;;30.65;15.23;;;;;;;;;;5051568;28;20025;-71
2023/03/01 00:08:45;;;;;;;34.72;16.83;;;;;;;;;;5051752;28;20086;-71
2023/03/01 00:11:16;;;;;;;34.95;16.40;;;;;;;;;;5051826;28;20021;-70
2023/03/01 00:13:43;;;;;;;31.75;15.88;;;;;;;;;;5051546;28;20059;-71
2023/03/01 00:16:14;;;;;;;32.13;15.95;;;;;;;;;;5051804;28;20055;-69
2023/03/01 00:18:40;;;;;;;33.33;17.33;;;;;;;;;;5050355;28;20413;-70
2023/03/01 00:21:06;;;;;;;39.45;16.75;;;;;;;;;;5051887;28;20031;-72
2023/03/01 00:23:32;;;;;;;33.80;17.38;;;;;;;;;;5051525;28;20497;-73
2023/03/01 00:25:58;;;;;;;37.33;18.40;;;;;;;;;;5051384;28;20029;-72
2023/03/01 00:28:24;;;;;;;34.17;18.35;;;;;;;;;;5051416;28;20067;-72
2023/03/01 00:30:50;;;;;;;35.65;18.48;;;;;;;;;;5051302;28;20461;-72
2023/03/01 00:33:16;;;;;;;34.22;17.85;;;;;;;;;;5051250;28;20036;-73
2023/03/01 00:35:42;;;;;;;37.05;18.25;;;;;;;;;;5050035;28;20036;-72
2023/03/01 00:38:08;;;;;;;41.85;19.50;;;;;;;;;;5051348;28;20116;-72
2023/03/01 00:40:35;;;;;;;41.22;19.67;;;;;;;;;;5051185;28;20067;-72
2023/03/01 00:43:01;;;;;;;39.88;18.60;;;;;;;;;;5051071;28;20772;-74
2023/03/01 00:45:28;;;;;;;34.28;18.70;;;;;;;;;;5050046;28;20377;-72
2023/03/01 00:47:54;;;;;;;36.90;18.55;;;;;;;;;;5051284;28;20070;-71
2023/03/01 00:50:20;;;;;;;37.38;19.20;;;;;;;;;;5051231;28;20021;-73
2023/03/01 00:52:46;;;;;;;43.13;20.15;;;;;;;;;;5039076;28;20033;-72
2023/03/01 00:55:12;;;;;;;39.90;18.95;;;;;;;;;;5038319;28;20504;-71
2023/03/01 00:57:38;;;;;;;39.60;20.05;;;;;;;;;;5051050;28;20485;-71
2023/03/01 01:00:05;;;;;;;46.33;20.13;;;;;;;;;;5050964;28;20029;-71
2023/03/01 01:02:35;;;;;;;43.53;20.65;;;;;;;;;;5049798;28;20025;-73
2023/03/01 01:05:01;;;;;;;42.38;21.00;;;;;;;;;;5050958;28;20021;-73
2023/03/01 01:07:27;;;;;;;42.17;20.40;;;;;;;;;;5050952;28;20025;-72
2023/03/01 01:09:53;;;;;;;42.45;22.02;;;;;;;;;;5051008;28;20531;-71
2023/03/01 01:12:19;;;;;;;47.45;20.98;;;;;;;;;;5049593;28;20529;-72
2023/03/01 01:14:46;;;;;;;44.67;21.58;;;;;;;;;;5050937;28;20056;-71
2023/03/01 01:17:12;;;;;;;42.25;21.02;;;;;;;;;;5050705;28;20059;-73
2023/03/01 01:19:38;;;;;;;45.53;21.25;;;;;;;;;;5053822;28;20052;-72
2023/03/01 01:22:04;;;;;;;42.35;20.98;;;;;;;;;;5054999;28;20541;-72
2023/03/01 01:24:30;;;;;;;44.20;22.55;;;;;;;;;;5054880;28;20112;-71
2023/03/01 01:26:56;;;;;;;51.10;21.60;;;;;;;;;;5052810;28;20068;-72
2023/03/01 01:29:22;;;;;;;45.85;22.02;;;;;;;;;;5054667;28;20553;-73
2023/03/01 01:31:49;;;;;;;54.67;22.38;;;;;;;;;;5054737;28;20386;-72
2023/03/01 01:34:16;;;;;;;46.80;21.02;;;;;;;;;;5054733;28;20098;-72
2023/03/01 01:36:42;;;;;;;44.03;21.63;;;;;;;;;;5054609;28;20032;-72
2023/03/01 01:39:12;;;;;;;41.65;19.98;;;;;;;;;;5054544;28;20025;-72
2023/03/01 01:41:39;;;;;;;48.58;23.85;;;;;;;;;;5054550;28;20021;-72
2023/03/01 01:44:17;;;;;;;49.35;22.65;;;;;;;;;;5053305;28;20040;-71
2023/03/01 01:46:46;;;;;;;48.17;22.73;;;;;;;;;;5054372;28;20522;-71
2023/03/01 01:49:28;;;;;;;49.55;23.83;;;;;;;;;;5054507;28;20074;-70
2023/03/01 01:52:02;;;;;;;51.13;23.47;;;;;;;;;;5054141;28;20114;-71
2023/03/01 01:54:32;;;;;;;43.97;21.73;;;;;;;;;;5054321;28;20040;-71
2023/03/01 01:57:02;;;;;;;49.10;23.10;;;;;;;;;;5054222;28;20047;-70
2023/03/01 01:59:29;;;;;;;44.15;21.60;;;;;;;;;;5053164;28;20044;-71
2023/03/01 02:01:55;;;;;;;47.20;22.83;;;;;;;;;;5054149;28;20100;-72
2023/03/01 02:04:21;;;;;;;48.17;21.83;;;;;;;;;;5054167;28;20028;-72
2023/03/01 02:06:57;;;;;;;50.67;23.88;;;;;;;;;;5054168;28;20028;-71
2023/03/01 02:09:24;;;;;;;46.70;23.67;;;;;;;;;;5054077;28;20381;-72
2023/03/01 02:11:51;;;;;;;50.95;23.55;;;;;;;;;;5054047;28;20051;-72
2023/03/01 02:14:17;;;;;;;50.03;23.08;;;;;;;;;;5053935;28;20029;-71
2023/03/01 02:16:43;;;;;;;53.00;23.73;;;;;;;;;;5052544;28;20056;-71
2023/03/01 02:19:12;;;;;;;47.17;23.88;;;;;;;;;;5053613;28;20045;-71
2023/03/01 02:21:41;;;;;;;50.88;22.75;;;;;;;;;;5053954;28;20033;-71
2023/03/01 02:24:28;;;;;;;47.97;22.45;;;;;;;;;;5053906;28;20021;-70
2023/03/01 02:26:55;;;;;;;45.70;22.27;;;;;;;;;;5052103;28;20120;-72
2023/03/01 02:29:22;;;;;;;52.58;23.42;;;;;;;;;;5052574;28;20028;-71
2023/03/01 02:31:49;;;;;;;51.95;23.23;;;;;;;;;;5053641;28;20025;-72
2023/03/01 02:34:17;;;;;;;48.45;23.10;;;;;;;;;;5052391;28;20037;-71
2023/03/01 02:36:53;;;;;;;49.15;23.25;;;;;;;;;;5052395;28;20024;-72
2023/03/01 02:39:22;;;;;;;46.50;22.20;;;;;;;;;;5053498;28;20029;-71
2023/03/01 02:41:52;;;;;;;46.92;21.63;;;;;;;;;;5053356;28;20017;-71
2023/03/01 02:44:19;;;;;;;46.88;22.60;;;;;;;;;;5053767;28;20377;-71
2023/03/01 02:46:47;;;;;;;46.40;22.73;;;;;;;;;;5053276;28;20033;-71
2023/03/01 02:49:19;;;;;;;49.85;23.08;;;;;;;;;;5048368;28;20026;-72
2023/03/01 02:52:04;;;;;;;48.67;24.33;;;;;;;;;;5033418;28;20108;-70
2023/03/01 02:54:45;;;;;;;52.78;22.50;;;;;;;;;;5033256;28;20057;-72
2023/03/01 02:57:11;;;;;;;50.58;22.92;;;;;;;;;;5033376;28;20685;-70
2023/03/01 02:59:39;;;;;;;51.95;22.42;;;;;;;;;;5033243;28;20382;-71
2023/03/01 03:02:20;;;;;;;49.25;22.50;;;;;;;;;;5033152;28;20064;-71
2023/03/01 03:04:46;;;;;;;48.80;22.80;;;;;;;;;;5033498;28;20033;-72
2023/03/01 03:07:12;;;;;;;47.45;22.38;;;;;;;;;;5032578;28;20036;-70
2023/03/01 03:09:38;;;;;;;47.90;21.38;;;;;;;;;;5033267;28;20045;-71
2023/03/01 03:12:04;;;;;;;48.72;23.05;;;;;;;;;;5032906;28;20175;-71
2023/03/01 03:14:34;;;;;;;50.70;23.75;;;;;;;;;;5033036;28;20033;-71
2023/03/01 03:17:00;;;;;;;45.83;21.27;;;;;;;;;;5033030;28;20033;-70
2023/03/01 03:19:26;;;;;;;46.67;22.42;;;;;;;;;;5032613;28;20056;-70
2023/03/01 03:21:52;;;;;;;46.95;23.60;;;;;;;;;;5032948;28;20097;-71
2023/03/01 03:24:18;;;;;;;48.17;22.42;;;;;;;;;;5051436;28;20048;-71
2023/03/01 03:26:44;;;;;;;51.97;23.63;;;;;;;;;;5052608;28;20048;-72
2023/03/01 03:29:10;;;;;;;50.28;23.33;;;;;;;;;;5052473;28;20028;-70
2023/03/01 03:31:36;;;;;;;49.38;22.33;;;;;;;;;;5052375;28;20094;-71
2023/03/01 03:34:02;;;;;;;52.75;23.90;;;;;;;;;;5051039;28;20450;-70
2023/03/01 03:36:28;;;;;;;53.70;23.92;;;;;;;;;;5052510;28;20609;-70
2023/03/01 03:38:54;;;;;;;53.15;23.48;;;;;;;;;;5051396;28;20033;-71
2023/03/01 03:41:21;;;;;;;48.53;23.15;;;;;;;;;;5051715;28;20021;-70
2023/03/01 03:43:48;;;;;;;47.97;21.92;;;;;;;;;;5052263;28;20025;-71
2023/03/01 03:46:14;;;;;;;58.30;22.92;;;;;;;;;;5052230;28;20497;-71
2023/03/01 03:48:43;;;;;;;47.08;22.35;;;;;;;;;;5052388;28;20097;-71
2023/03/01 03:51:13;;;;;;;50.55;22.27;;;;;;;;;;5052146;28;20021;-70
2023/03/01 03:53:40;;;;;;;51.05;23.35;;;;;;;;;;5051848;28;20384;-69
2023/03/01 03:56:06;;;;;;;52.33;22.58;;;;;;;;;;5051042;28;20109;-71
2023/03/01 03:58:32;;;;;;;49.60;23.02;;;;;;;;;;5052065;28;20031;-71
2023/03/01 04:00:59;;;;;;;52.42;22.90;;;;;;;;;;5051851;28;20025;-71
2023/03/01 04:03:26;;;;;;;52.72;24.50;;;;;;;;;;5050677;28;20029;-70
2023/03/01 04:05:52;;;;;;;54.45;23.92;;;;;;;;;;5052024;28;20096;-71
2023/03/01 04:08:20;;;;;;;48.65;23.67;;;;;;;;;;5051826;28;20029;-71
2023/03/01 04:10:47;;;;;;;49.28;22.50;;;;;;;;;;5050596;28;20032;-70
2023/03/01 04:13:19;;;;;;;52.05;23.13;;;;;;;;;;5051736;28;20119;-70
2023/03/01 04:15:45;;;;;;;54.22;22.45;;;;;;;;;;5051883;28;20063;-72
2023/03/01 04:18:16;;;;;;;51.50;23.63;;;;;;;;;;5051416;28;20029;-70
2023/03/01 04:20:42;;;;;;;51.83;22.58;;;;;;;;;;5051799;28;20421;-71
2023/03/01 04:23:10;;;;;;;55.33;24.30;;;;;;;;;;5051537;28;20029;-70
2023/03/01 04:25:39;;;;;;;54.30;25.02;;;;;;;;;;5051642;28;20036;-71
2023/03/01 04:28:05;;;;;;;55.80;24.20;;;;;;;;;;5047464;28;20026;-71
2023/03/01 04:30:35;;;;;;;56.78;24.92;;;;;;;;;;5031474;28;20029;-71
2023/03/01 04:33:02;;;;;;;53.92;24.17;;;;;;;;;;5031351;28;20042;-70
2023/03/01 04:35:28;;;;;;;53.80;25.42;;;;;;;;;;5031326;28;20013;-71
2023/03/01 04:37:54;;;;;;;56.58;24.00;;;;;;;;;;5031321;28;20034;-71
2023/03/01 04:40:21;;;;;;;57.17;24.13;;;;;;;;;;5031322;28;20159;-70
2023/03/01 04:42:47;;;;;;;52.50;24.27;;;;;;;;;;5031170;28;20027;-70
2023/03/01 04:45:13;;;;;;;54.42;23.92;;;;;;;;;;5034481;28;20025;-71
2023/03/01 04:47:44;;;;;;;55.85;24.67;;;;;;;;;;5051194;28;20053;-71
2023/03/01 04:50:10;;;;;;;56.28;25.05;;;;;;;;;;5051277;28;20029;-70
2023/03/01 04:52:36;;;;;;;58.45;23.65;;;;;;;;;;5050285;28;20025;-72
2023/03/01 04:55:03;;;;;;;57.33;24.88;;;;;;;;;;5049521;28;20394;-71
2023/03/01 04:57:29;;;;;;;53.75;22.75;;;;;;;;;;5051350;28;20075;-71
2023/03/01 04:59:55;;;;;;;52.15;23.42;;;;;;;;;;5051039;28;20025;-71
2023/03/01 05:02:21;;;;;;;52.25;23.05;;;;;;;;;;5049917;28;20049;-71
2023/03/01 05:04:47;;;;;;;52.63;23.33;;;;;;;;;;5050961;28;20063;-72
2023/03/01 05:07:19;;;;;;;48.60;21.63;;;;;;;;;;5051086;28;20048;-71
2023/03/01 05:09:45;;;;;;;50.53;23.35;;;;;;;;;;5049652;28;20053;-71
2023/03/01 05:12:11;;;;;;;52.22;22.65;;;;;;;;;;5050723;28;20033;-71
2023/03/01 05:14:38;;;;;;;52.20;21.73;;;;;;;;;;5051067;28;20043;-73
2023/03/01 05:17:04;;;;;;;52.42;22.70;;;;;;;;;;5050659;28;20044;-70
2023/03/01 05:19:32;;;;;;;49.20;22.27;;;;;;;;;;5049013;28;20120;-72
2023/03/01 05:22:04;;;;;;;53.25;23.08;;;;;;;;;;5049252;28;20501;-71
2023/03/01 05:24:31;;;;;;;50.92;22.17;;;;;;;;;;5050435;28;20645;-71
2023/03/01 05:26:58;;;;;;;50.20;21.42;;;;;;;;;;5050589;28;20013;-70
2023/03/01 05:29:25;;;;;;;44.47;20.20;;;;;;;;;;5050579;28;20057;-71
2023/03/01 05:31:53;;;;;;;53.40;22.27;;;;;;;;;;5050400;28;20021;-71
2023/03/01 05:34:19;;;;;;;54.13;21.50;;;;;;;;;;5049244;28;20045;-72
2023/03/01 05:36:45;;;;;;;45.00;21.20;;;;;;;;;;5050808;28;20561;-70
2023/03/01 05:39:12;;;;;;;49.30;21.35;;;;;;;;;;5049983;28;20500;-69
2023/03/01 05:41:38;;;;;;;52.92;21.27;;;;;;;;;;5050593;28;20017;-71
2023/03/01 05:44:04;;;;;;;49.42;21.70;;;;;;;;;;5050414;28;20025;-71
2023/03/01 05:46:30;;;;;;;51.70;20.75;;;;;;;;;;5050336;28;20029;-70
2023/03/01 05:48:56;;;;;;;48.25;20.85;;;;;;;;;;5050405;28;20155;-70
2023/03/01 05:51:22;;;;;;;51.05;20.15;;;;;;;;;;5047923;28;20119;-71
2023/03/01 05:53:48;;;;;;;46.63;20.10;;;;;;;;;;5050357;28;20473;-70
2023/03/01 05:56:14;;;;;;;49.28;19.90;;;;;;;;;;5050363;28;20166;-71
2023/03/01 05:58:40;;;;;;;44.92;20.02;;;;;;;;;;5050581;28;20158;-71
2023/03/01 06:01:11;;;;;;;46.22;19.83;;;;;;;;;;5049034;28;20021;-71
2023/03/01 06:03:37;;;;;;;54.80;20.90;;;;;;;;;;5050448;28;20025;-71
2023/03/01 06:06:03;;;;;;;48.08;20.25;;;;;;;;;;5054251;28;20021;-71
2023/03/01 06:08:29;;;;;;;49.45;20.35;;;;;;;;;;5052988;28;20029;-70
2023/03/01 06:10:55;;;;;;;42.38;18.30;;;;;;;;;;5053845;28;20020;-71
2023/03/01 06:13:23;;;;;;;45.30;18.83;;;;;;;;;;5052402;28;20033;-72
2023/03/01 06:15:49;;;;;;;43.67;19.35;;;;;;;;;;5053950;28;20024;-69
2023/03/01 06:18:15;;;;;;;44.58;18.25;;;;;;;;;;5051792;28;20458;-70
2023/03/01 06:20:41;;;;;;;40.22;17.90;;;;;;;;;;5052616;28;20031;-71
2023/03/01 06:23:07;;;;;;;39.47;18.23;;;;;;;;;;5053789;28;20108;-70
2023/03/01 06:25:33;;;;;;;43.55;17.60;;;;;;;;;;5039464;28;20137;-70
2023/03/01 06:27:59;;;;;;;41.15;16.80;;;;;;;;;;5033779;28;20220;-72
2023/03/01 06:30:26;;;;;;;40.60;17.02;;;;;;;;;;5033708;28;20036;-71
2023/03/01 06:32:52;;;;;;;43.47;18.15;;;;;;;;;;5033658;28;20512;-71
2023/03/01 06:35:19;;;;;;;41.47;17.85;;;;;;;;;;5033798;28;20021;-71
2023/03/01 06:37:46;;;;;;;43.63;17.77;;;;;;;;;;5032226;28;20410;-71
2023/03/01 06:40:13;;;;;;;38.72;16.85;;;;;;;;;;5033438;28;20018;-71
2023/03/01 06:42:40;;;;;;;35.92;16.55;;;;;;;;;;5043334;28;20056;-70
2023/03/01 06:45:07;;;;;;;40.60;15.68;;;;;;;;;;5053553;28;20021;-72
2023/03/01 06:47:33;;;;;;;40.90;17.40;;;;;;;;;;5053215;28;20052;-71
2023/03/01 06:50:00;;;;;;;40.13;18.20;;;;;;;;;;5052025;28;20112;-70
2023/03/01 06:52:26;;;;;;;36.38;16.45;;;;;;;;;;5053217;28;20025;-71
2023/03/01 06:54:52;;;;;;;35.95;15.88;;;;;;;;;;5055012;28;20424;-72
2023/03/01 06:57:18;;;;;;;41.70;16.73;;;;;;;;;;5068942;28;20029;-71
2023/03/01 06:59:44;;;;;;;40.60;16.17;;;;;;;;;;5052634;28;20474;-70
2023/03/01 07:02:14;;;;;;;39.72;17.30;;;;;;;;;;5051692;28;20469;-71
2023/03/01 07:04:41;;;;;;;33.92;13.98;;;;;;;;;;5050906;28;20025;-71
2023/03/01 07:07:07;;;;;;;34.17;14.20;;;;;;;;;;5052694;28;20021;-69
2023/03/01 07:09:34;;;;;;;35.70;15.27;;;;;;;;;;5052785;28;20036;-71
2023/03/01 07:12:00;;;;;;;35.65;15.55;;;;;;;;;;5052810;28;20079;-70
2023/03/01 07:14:26;;;;;;;39.20;15.02;;;;;;;;;;5051260;28;20072;-70
2023/03/01 07:16:56;;;;;;;33.53;13.38;;;;;;;;;;5034248;28;20022;-69
2023/03/01 07:19:22;;;;;;;34.13;14.65;;;;;;;;;;5032440;28;20045;-70
2023/03/01 07:21:48;;;;;;;33.80;15.63;;;;;;;;;;5031526;28;20025;-70
2023/03/01 07:24:14;;;;;;;29.20;13.52;;;;;;;;;;5032640;28;20032;-69
2023/03/01 07:26:40;;;;;;;34.97;14.70;;;;;;;;;;5032788;28;20033;-71
2023/03/01 07:29:07;;;;;;;30.15;13.80;;;;;;;;;;5032538;28;20022;-69
2023/03/01 07:31:33;;;;;;;36.75;15.00;;;;;;;;;;5032790;28;20052;-71
2023/03/01 07:33:59;;;;;;;31.80;14.70;;;;;;;;;;5036826;28;20119;-70
2023/03/01 07:36:25;;;;;;;30.98;13.57;;;;;;;;;;5032377;28;20096;-68
2023/03/01 07:38:51;;;;;;;32.05;14.50;;;;;;;;;;5032038;28;20115;-69
2023/03/01 07:41:18;;;;;;;37.47;14.55;;;;;;;;;;5032160;28;20072;-69
2023/03/01 07:43:44;;;;;;;38.10;13.55;;;;;;;;;;5032339;28;20108;-70
2023/03/01 07:46:10;;;;;;;29.17;12.77;;;;;;;;;;5032471;28;20187;-70
2023/03/01 07:48:36;;;;;;;32.13;13.60;;;;;;;;;;5032260;28;20168;-69
2023/03/01 07:51:03;;;;;;;31.45;13.82;;;;;;;;;;5036770;28;20037;-69
2023/03/01 07:53:31;;;;;;;30.42;13.55;;;;;;;;;;5050600;28;20064;-67
2023/03/01 07:56:04;;;;;;;32.38;13.15;;;;;;;;;;5048086;28;20029;-69
2023/03/01 07:58:30;;;;;;;31.35;12.82;;;;;;;;;;5040055;28;20026;-70
2023/03/01 08:00:56;;;;;;;36.28;13.73;;;;;;;;;;5031761;28;20363;-70
2023/03/01 08:03:22;;;;;;;33.20;12.45;;;;;;;;;;5031834;28;20048;-70
2023/03/01 08:05:48;;;;;;;31.83;12.98;;;;;;;;;;5032098;28;20021;-69
2023/03/01 08:08:14;;;;;;;33.88;13.43;;;;;;;;;;5040491;28;20036;-69
2023/03/01 08:10:40;;;;;;;33.35;13.50;;;;;;;;;;5055122;28;20635;-71
2023/03/01 08:13:06;;;;;;;27.88;12.35;;;;;;;;;;5031484;28;20037;-71
2023/03/01 08:15:32;;;;;;;29.15;13.02;;;;;;;;;;5031587;28;20025;-70
2023/03/01 08:17:58;;;;;;;32.65;13.15;;;;;;;;;;5032024;28;20079;-69
2023/03/01 08:20:24;;;;;;;30.10;13.65;;;;;;;;;;5032926;28;20103;-70
2023/03/01 08:22:50;;;;;;;31.15;13.07;;;;;;;;;;5034492;28;20024;-70
2023/03/01 08:25:16;;;;;;;28.90;12.60;;;;;;;;;;5042857;28;20029;-70
2023/03/01 08:27:42;;;;;;;31.90;13.68;;;;;;;;;;5044591;28;20018;-70
2023/03/01 08:30:08;;;;;;;32.60;13.70;;;;;;;;;;5047998;28;20041;-70
2023/03/01 08:32:38;;;;;;;32.45;12.70;;;;;;;;;;5029074;28;20029;-70
2023/03/01 08:35:04;;;;;;;31.98;12.98;;;;;;;;;;5033666;28;20048;-70
2023/03/01 08:37:32;;;;;;;29.10;12.98;;;;;;;;;;5050980;28;20021;-69
2023/03/01 08:39:58;;;;;;;36.08;13.85;;;;;;;;;;5050899;28;20097;-69
2023/03/01 08:42:24;;;;;;;30.60;13.15;;;;;;;;;;5051100;28;20116;-71
2023/03/01 08:44:50;;;;;;;33.92;13.13;;;;;;;;;;5051479;28;20409;-70
2023/03/01 08:47:16;;;;;;;33.95;14.02;;;;;;;;;;5051209;28;20031;-70
2023/03/01 08:49:43;;;;;;;32.25;13.38;;;;;;;;;;5037921;28;20033;-70
2023/03/01 08:52:09;;;;;;;33.58;14.73;;;;;;;;;;5049702;28;20041;-69
2023/03/01 08:54:35;;;;;;;30.50;13.30;;;;;;;;;;5033774;28;20083;-71
2023/03/01 08:57:04;;;;;;;35.63;14.93;;;;;;;;;;5033954;28;20509;-68
2023/03/01 08:59:30;;;;;;;32.83;13.93;;;;;;;;;;5032276;28;20033;-71
2023/03/01 09:01:56;;;;;;;37.25;13.57;;;;;;;;;;5050998;28;20603;-70
2023/03/01 09:04:22;;;;;;;38.47;14.18;;;;;;;;;;5037125;28;20037;-71
2023/03/01 09:06:48;;;;;;;31.63;12.98;;;;;;;;;;5032044;28;20036;-71
2023/03/01 09:09:15;;;;;;;31.67;13.43;;;;;;;;;;5048853;28;20032;-70
2023/03/01 09:11:42;;;;;;;30.67;13.95;;;;;;;;;;5051011;28;20477;-70
2023/03/01 09:14:08;;;;;;;32.50;13.80;;;;;;;;;;5050987;28;20059;-70
2023/03/01 09:16:35;;;;;;;35.67;13.55;;;;;;;;;;5034769;28;20465;-70
2023/03/01 09:19:02;;;;;;;28.80;12.60;;;;;;;;;;5033963;28;20037;-70
2023/03/01 09:21:28;;;;;;;26.75;13.07;;;;;;;;;;5030819;28;20479;-70
2023/03/01 09:23:56;;;;;;;28.77;13.05;;;;;;;;;;5030544;28;20407;-69
2023/03/01 09:26:23;;;;;;;26.67;12.43;;;;;;;;;;5045945;28;20035;-70
2023/03/01 09:28:50;;;;;;;26.50;11.80;;;;;;;;;;5036331;28;20094;-70
2023/03/01 09:31:16;;;;;;;28.13;12.07;;;;;;;;;;5036534;28;20030;-72
2023/03/01 09:33:43;;;;;;;25.63;12.05;;;;;;;;;;5031072;28;20037;-69
2023/03/01 09:36:13;;;;;;;25.30;11.65;;;;;;;;;;5048293;28;20107;-70
2023/03/01 09:38:39;;;;;;;23.67;11.43;;;;;;;;;;5061285;28;20032;-70
2023/03/01 09:41:22;;;;;;;30.33;12.15;;;;;;;;;;5054816;28;21687;-71
2023/03/01 09:43:53;;;;;;;23.75;10.75;;;;;;;;;;5034225;28;20061;-69
2023/03/01 09:46:21;;;;;;;26.10;11.57;;;;;;;;;;5041851;28;20033;-69
2023/03/01 09:48:51;;;;;;;20.40;10.75;;;;;;;;;;5046272;28;20033;-71
2023/03/01 09:51:24;;;;;;;18.58;10.40;;;;;;;;;;5041793;28;20128;-69
2023/03/01 09:53:50;;;;;;;27.83;11.55;;;;;;;;;;5034327;28;20055;-69
2023/03/01 09:56:20;;;;;;;18.98;10.93;;;;;;;;;;5040274;28;20032;-69
2023/03/01 09:58:52;;;;;;;25.42;12.05;;;;;;;;;;5038795;28;20025;-70
2023/03/01 10:01:21;;;;;;;25.23;12.13;;;;;;;;;;5034475;28;20523;-70
2023/03/01 10:04:07;;;;;;;22.77;11.63;;;;;;;;;;5044403;28;20116;-69
2023/03/01 10:06:33;;;;;;;21.42;10.57;;;;;;;;;;5036241;28;20057;-70
2023/03/01 10:09:14;;;;;;;23.25;11.68;;;;;;;;;;5045725;28;20083;-69
2023/03/01 10:11:45;;;;;;;19.80;10.95;;;;;;;;;;5045083;28;20032;-69
2023/03/01 10:14:20;;;;;;;24.35;11.30;;;;;;;;;;5041857;28;20041;-69
2023/03/01 10:16:53;;;;;;;18.08;9.35;;;;;;;;;;5032679;28;20136;-69
2023/03/01 10:19:25;;;;;;;13.82;8.10;;;;;;;;;;5033982;28;20042;-69
2023/03/01 10:21:52;;;;;;;15.03;8.00;;;;;;;;;;5034088;28;20057;-70
2023/03/01 10:24:21;;;;;;;15.25;7.65;;;;;;;;;;5034241;28;20274;-72
2023/03/01 10:26:50;;;;;;;12.65;7.50;;;;;;;;;;5032509;28;20026;-71
2023/03/01 10:29:16;;;;;;;12.15;7.13;;;;;;;;;;5034173;28;20466;-70
2023/03/01 10:31:47;;;;;;;14.30;7.72;;;;;;;;;;5033955;28;20352;-69
2023/03/01 10:34:14;;;;;;;15.90;7.55;;;;;;;;;;5033888;28;20116;-70
2023/03/01 10:36:42;;;;;;;10.88;7.07;;;;;;;;;;5033707;28;20026;-70
2023/03/01 10:39:18;;;;;;;9.95;5.93;;;;;;;;;;5033366;28;20034;-70
2023/03/01 10:41:57;;;;;;;9.48;5.90;;;;;;;;;;5033668;28;20056;-70
2023/03/01 10:44:42;;;;;;;8.65;5.32;;;;;;;;;;5034012;28;20105;-71
2023/03/01 10:47:13;;;;;;;8.15;5.55;;;;;;;;;;5033339;28;20050;-71
2023/03/01 10:49:39;;;;;;;6.82;5.22;;;;;;;;;;5033448;28;20097;-70
2023/03/01 10:52:18;;;;;;;8.23;5.18;;;;;;;;;;5033290;28;20025;-68
2023/03/01 10:54:52;;;;;;;8.95;5.03;;;;;;;;;;5033418;28;20498;-70
2023/03/01 10:57:37;;;;;;;6.00;4.07;;;;;;;;;;5033290;28;20108;-69
2023/03/01 11:00:19;;;;;;;6.32;4.15;;;;;;;;;;5033279;28;20030;-70
2023/03/01 11:02:49;;;;;;;7.28;3.97;;;;;;;;;;5033292;28;20088;-70
2023/03/01 11:05:15;;;;;;;6.13;3.60;;;;;;;;;;5033061;28;20064;-71
2023/03/01 11:08:10;;;;;;;5.25;3.28;;;;;;;;;;5033209;28;20048;-70
2023/03/01 11:10:36;;;;;;;4.95;3.25;;;;;;;;;;5032999;28;20044;-70
2023/03/01 11:13:14;;;;;;;7.68;3.92;;;;;;;;;;5033007;28;20112;-68
2023/03/01 11:15:40;;;;;;;6.07;3.00;;;;;;;;;;5032756;28;20061;-69
2023/03/01 11:18:19;;;;;;;4.65;2.60;;;;;;;;;;5031247;28;20021;-70
2023/03/01 11:20:45;;;;;;;7.63;3.03;;;;;;;;;;5033034;28;20041;-69
2023/03/01 11:23:13;;;;;;;4.60;2.50;;;;;;;;;;5032872;28;20026;-69
2023/03/01 11:25:59;;;;;;;5.72;2.40;;;;;;;;;;5032781;28;20026;-69
2023/03/01 11:28:26;;;;;;;6.43;2.42;;;;;;;;;;5032600;28;20033;-70
2023/03/01 11:30:53;;;;;;;3.90;1.90;;;;;;;;;;5032848;28;20072;-69
2023/03/01 11:33:42;;;;;;;5.63;2.47;;;;;;;;;;5032433;28;20668;-70
2023/03/01 11:36:11;;;;;;;3.13;2.55;;;;;;;;;;5032536;28;20041;-70
2023/03/01 11:38:38;;;;;;;2.85;2.42;;;;;;;;;;5032344;28;20024;-69
2023/03/01 11:41:12;;;;;;;2.28;1.92;;;;;;;;;;5031110;28;20018;-69
2023/03/01 11:43:45;;;;;;;2.70;2.08;;;;;;;;;;5032385;28;20458;-70
2023/03/01 11:46:20;;;;;;;3.45;2.58;;;;;;;;;;5032410;28;20096;-70
2023/03/01 11:48:49;;;;;;;3.88;2.10;;;;;;;;;;5032360;28;20045;-69
2023/03/01 11:51:25;;;;;;;4.20;2.40;;;;;;;;;;5032219;28;20056;-69
2023/03/01 11:54:00;;;;;;;2.45;1.83;;;;;;;;;;5030901;28;20038;-69
2023/03/01 11:56:32;;;;;;;2.65;1.88;;;;;;;;;;5030767;28;20041;-70
2023/03/01 11:59:18;;;;;;;3.45;1.85;;;;;;;;;;5030840;28;20025;-70
2023/03/01 12:01:45;;;;;;;2.35;1.70;;;;;;;;;;5031775;28;20436;-69
2023/03/01 12:04:17;;;;;;;2.75;1.70;;;;;;;;;;5031691;28;20028;-70
2023/03/01 12:06:43;;;;;;;3.10;1.90;;;;;;;;;;5031970;28;20033;-69
2023/03/01 12:09:16;;;;;;;3.17;1.90;;;;;;;;;;5031690;28;20030;-69
2023/03/01 12:11:41;;;;;;;;;;;;;;;;;;5032506;28;20064;-68
2023/03/01 12:14:26;;;;;;;3.47;1.90;;;;;;;;;;5031693;28;19913;-69
2023/03/01 12:17:04;;;;;;;4.40;1.70;;;;;;;;;;5032071;28;20461;-69
2023/03/01 12:19:30;;;;;;;5.38;1.90;;;;;;;;;;5031476;28;20124;-69
2023/03/01 12:22:15;;;;;;;2.00;1.50;;;;;;;;;;5030240;28;20018;-69
2023/03/01 12:24:57;;;;;;;2.97;1.40;;;;;;;;;;5031540;28;20061;-69
2023/03/01 12:27:41;;;;;;;3.22;1.33;;;;;;;;;;5031738;28;20497;-70
2023/03/01 12:30:26;;;;;;;2.88;1.55;;;;;;;;;;5031584;28;20079;-70
2023/03/01 12:33:06;;;;;;;2.70;1.45;;;;;;;;;;5031337;28;20037;-69
2023/03/01 12:35:50;;;;;;;2.47;1.10;;;;;;;;;;5031841;28;20279;-69
2023/03/01 12:38:19;;;;;;;3.53;1.65;;;;;;;;;;5031381;28;20018;-68
2023/03/01 12:40:48;;;;;;;3.78;1.50;;;;;;;;;;5031477;28;20056;-70
2023/03/01 12:43:25;;;;;;;2.00;1.50;;;;;;;;;;5031453;28;20060;-70
2023/03/01 12:45:51;;;;;;;3.65;1.70;;;;;;;;;;5031279;28;20037;-70
2023/03/01 12:48:24;;;;;;;3.38;1.50;;;;;;;;;;5031373;28;20355;-69
2023/03/01 12:50:55;;;;;;;2.70;2.20;;;;;;;;;;5031602;28;20116;-71
2023/03/01 12:53:25;;;;;;;9.02;2.47;;;;;;;;;;5031372;28;20478;-71
2023/03/01 12:55:54;;;;;;;6.80;1.88;;;;;;;;;;5031158;28;20025;-71
2023/03/01 12:58:21;;;;;;;3.55;1.98;;;;;;;;;;5031109;28;20030;-71
2023/03/01 13:01:07;;;;;;;4.13;1.85;;;;;;;;;;5031199;28;20048;-70
2023/03/01 13:03:52;;;;;;;2.75;2.03;;;;;;;;;;5030751;28;20052;-69
2023/03/01 13:06:22;;;;;;;4.00;1.90;;;;;;;;;;5030948;28;20033;-69
2023/03/01 13:08:48;;;;;;;3.78;1.90;;;;;;;;;;5036329;28;20078;-67
2023/03/01 13:11:22;;;;;;;4.72;2.13;;;;;;;;;;5040764;28;20112;-70
2023/03/01 13:13:54;;;;;;;2.38;1.50;;;;;;;;;;5037899;28;20046;-70
2023/03/01 13:16:22;;;;;;;4.57;1.83;;;;;;;;;;5044714;28;20020;-69
2023/03/01 13:18:48;;;;;;;4.28;2.28;;;;;;;;;;5052376;28;20553;-70
2023/03/01 13:21:29;;;;;;;4.80;1.77;;;;;;;;;;5045611;28;20025;-69
2023/03/01 13:23:55;;;;;;;8.02;2.30;;;;;;;;;;5043396;28;20489;-69
2023/03/01 13:26:21;;;;;;;4.97;1.98;;;;;;;;;;5038982;28;20052;-69
2023/03/01 13:28:49;;;;;;;4.82;1.73;;;;;;;;;;5046375;28;20592;-70
2023/03/01 13:31:15;;;;;;;3.53;1.88;;;;;;;;;;5048740;28;20106;-69
2023/03/01 13:33:48;;;;;;;7.35;2.00;;;;;;;;;;5053665;28;20481;-68
2023/03/01 13:36:35;;;;;;;4.53;1.55;;;;;;;;;;5040934;28;20061;-68
2023/03/01 13:39:26;;;;;;;1.98;1.60;;;;;;;;;;5052557;28;20449;-69
2023/03/01 13:41:53;;;;;;;2.17;1.67;;;;;;;;;;5034372;28;20066;-70
2023/03/01 13:44:38;;;;;;;4.38;1.73;;;;;;;;;;5035596;28;20063;-70
2023/03/01 13:47:08;;;;;;;5.25;1.75;;;;;;;;;;5034659;28;20104;-69
2023/03/01 13:49:42;;;;;;;6.65;2.00;;;;;;;;;;5043036;28;20027;-68
2023/03/01 13:52:21;;;;;;;1.60;1.50;;;;;;;;;;5039407;28;20053;-68
2023/03/01 13:54:47;;;;;;;3.17;2.22;;;;;;;;;;5033753;28;20041;-69
2023/03/01 13:57:19;;;;;;;4.93;1.85;;;;;;;;;;5052992;28;20111;-68
2023/03/01 13:59:47;;;;;;;4.13;1.87;;;;;;;;;;5054480;28;20025;-69
2023/03/01 14:02:13;;;;;;;2.47;1.70;;;;;;;;;;5045691;28;20029;-69
2023/03/01 14:04:40;;;;;;;2.33;1.70;;;;;;;;;;5043171;28;20022;-70
2023/03/01 14:07:10;;;;;;;5.35;1.75;;;;;;;;;;5032815;28;20037;-70
2023/03/01 14:09:39;;;;;;;4.05;1.65;;;;;;;;;;5044990;28;20037;-69
2023/03/01 14:12:21;;;;;;;5.72;1.67;;;;;;;;;;5038959;28;20528;-70
2023/03/01 14:14:59;;;;;;;6.37;1.83;;;;;;;;;;5048788;28;20037;-70
2023/03/01 14:17:43;;;;;;;3.25;1.23;;;;;;;;;;5037844;28;20255;-71
2023/03/01 14:20:12;;;;;;;1.88;1.52;;;;;;;;;;5033610;28;20567;-70
2023/03/01 14:22:41;;;;;;;3.05;1.50;;;;;;;;;;5035460;28;20095;-70
2023/03/01 14:25:17;;;;;;;3.33;1.40;;;;;;;;;;5036708;28;20034;-69
2023/03/01 14:27:43;;;;;;;2.35;1.50;;;;;;;;;;5048129;28;20025;-70
2023/03/01 14:30:13;;;;;;;1.77;1.33;;;;;;;;;;5051386;28;20029;-69
2023/03/01 14:32:39;;;;;;;3.90;1.80;;;;;;;;;;5035182;28;20030;-75
2023/03/01 14:35:19;;;;;;;3.28;1.50;;;;;;;;;;5042002;28;20041;-73